Time;durP1;ratioP1;P1;durP2;ratioP2;P2;SDS_P1;SDS_P2;PMS_P1;PMS_P2;Temp;Humidity;BMP_temperature;BMP_pressure;BME280_temperature;BME280_humidity;BME280_pressure;Samples;Min_cycle;Max_cycle;Signal;HPM_P1;HPM_P2
2022/02/01 00:00:31;;;;;;;7.88;3.30;;;16.70;56.10;;;;;;5016774;28;20036;-55
2022/02/01 00:03:00;;;;;;;9.75;4.28;;;16.80;56.10;;;;;;5008485;28;20071;-55
2022/02/01 00:08:15;;;;;;;12.13;4.03;;;16.80;56.00;;;;;;5010508;28;20026;-61
2022/02/01 00:33:09;;;;;;;5.15;2.60;;;16.80;56.50;;;;;;5011946;28;20057;-57
2022/02/01 00:37:10;;;;;;;5.63;2.60;;;16.80;55.80;;;;;;5022570;28;20065;-53
2022/02/01 00:39:46;;;;;;;7.18;3.13;;;16.70;55.60;;;;;;5026203;28;20036;-53
2022/02/01 00:42:12;;;;;;;5.13;2.65;;;16.80;55.60;;;;;;5020655;28;20033;-59
2022/02/01 00:44:38;;;;;;;7.75;3.00;;;16.80;55.60;;;;;;5015753;28;20152;-55
2022/02/01 00:47:04;;;;;;;6.63;3.20;;;16.80;56.20;;;;;;5014088;28;20088;-55
2022/02/01 00:49:32;;;;;;;5.75;2.70;;;16.80;55.60;;;;;;5012535;28;20542;-56
2022/02/01 00:51:58;;;;;;;4.13;2.75;;;16.80;55.50;;;;;;5010628;28;20089;-58
2022/02/01 00:54:23;;;;;;;5.60;3.20;;;16.80;55.60;;;;;;5017550;28;20036;-54
2022/02/01 00:56:49;;;;;;;6.88;3.10;;;16.80;55.50;;;;;;5016024;28;20029;-53
2022/02/01 00:59:14;;;;;;;8.10;2.90;;;16.80;55.50;;;;;;5015034;28;20022;-55
2022/02/01 01:01:40;;;;;;;6.55;3.00;;;16.80;55.50;;;;;;5017153;28;20383;-61
2022/02/01 01:04:05;;;;;;;6.90;2.80;;;16.70;55.40;;;;;;5018339;28;20049;-52
2022/02/01 01:06:31;;;;;;;6.75;2.90;;;16.80;55.40;;;;;;5011814;28;20105;-57
2022/02/01 01:08:56;;;;;;;7.05;2.85;;;16.70;55.40;;;;;;5015852;28;20037;-61
2022/02/01 01:11:22;;;;;;;5.50;2.78;;;16.70;55.40;;;;;;5026049;28;20499;-52
2022/02/01 01:14:14;;;;;;;6.22;3.13;;;16.80;55.40;;;;;;5018526;28;20038;-55
2022/02/01 01:17:07;;;;;;;6.32;2.90;;;16.80;55.40;;;;;;5011551;28;20506;-57
2022/02/01 01:38:55;;;;;;;6.30;2.40;;;16.70;55.30;;;;;;5022669;28;20036;-54
2022/02/01 01:44:11;;;;;;;7.07;2.83;;;16.70;55.40;;;;;;5011948;28;20028;-59
2022/02/01 01:54:49;;;;;;;4.95;2.33;;;16.60;55.70;;;;;;5018849;28;20041;-56
2022/02/01 01:57:14;;;;;;;6.30;2.30;;;16.60;55.80;;;;;;5015814;28;20033;-54
2022/02/01 01:59:40;;;;;;;5.55;2.33;;;16.70;55.80;;;;;;5013108;28;20130;-57
2022/02/01 02:02:05;;;;;;;7.47;2.60;;;16.70;55.90;;;;;;5014328;28;20387;-54
2022/02/01 02:04:31;;;;;;;6.57;2.90;;;16.70;55.90;;;;;;5004563;28;20464;-56
2022/02/01 02:06:56;;;;;;;5.72;2.45;;;16.60;55.80;;;;;;5006271;28;20069;-58
2022/02/01 02:09:22;;;;;;;5.78;2.17;;;16.60;55.80;;;;;;5012814;28;20596;-55
2022/02/01 02:11:55;;;;;;;4.13;2.40;;;16.70;56.00;;;;;;5017345;28;20302;-58
2022/02/01 02:14:21;;;;;;;8.07;2.35;;;16.70;55.90;;;;;;5015132;28;20044;-63
2022/02/01 02:16:57;;;;;;;5.10;2.22;;;16.70;55.90;;;;;;5008641;28;20036;-53
2022/02/01 02:19:27;;;;;;;9.70;2.30;;;16.70;56.00;;;;;;5015283;28;20026;-58
2022/02/01 02:21:54;;;;;;;6.38;2.50;;;16.70;56.00;;;;;;5016297;28;20116;-53
2022/02/01 02:24:21;;;;;;;3.70;2.05;;;16.70;56.00;;;;;;5021400;28;20159;-61
2022/02/01 02:26:48;;;;;;;5.85;2.20;;;16.70;56.00;;;;;;5008458;28;20650;-60
2022/02/01 02:29:14;;;;;;;4.28;1.85;;;16.70;56.00;;;;;;5018346;28;20625;-53
2022/02/01 02:31:39;;;;;;;5.18;1.90;;;16.70;55.90;;;;;;5012317;28;20029;-56
2022/02/01 02:34:10;;;;;;;4.15;1.92;;;16.70;55.90;;;;;;5008633;28;20060;-55
2022/02/01 02:36:39;;;;;;;3.13;2.00;;;16.70;55.80;;;;;;5020541;28;20057;-53
2022/02/01 02:39:25;;;;;;;6.22;2.47;;;16.70;56.00;;;;;;5015717;28;20032;-59
2022/02/01 02:42:09;;;;;;;;;;;16.70;55.80;;;;;;5013418;28;20037;-58
2022/02/01 02:47:20;;;;;;;4.65;2.00;;;16.70;55.80;;;;;;5017772;28;20056;-53
2022/02/01 02:49:46;;;;;;;6.28;1.92;;;16.70;55.80;;;;;;5022887;28;20049;-53
2022/02/01 02:52:11;;;;;;;5.93;2.53;;;16.70;55.70;;;;;;5009039;28;20104;-60
2022/02/01 02:54:37;;;;;;;2.90;2.00;;;16.70;55.60;;;;;;5017428;28;20033;-55
2022/02/01 02:57:05;;;;;;;5.57;2.42;;;16.70;55.60;;;;;;5011990;28;20755;-53
2022/02/01 02:59:30;;;;;;;4.95;2.20;;;16.70;55.50;;;;;;5018628;28;20069;-55
2022/02/01 03:01:56;;;;;;;4.25;2.05;;;16.70;55.50;;;;;;4997502;28;20430;-56
2022/02/01 03:04:23;;;;;;;4.55;2.50;;;16.70;55.40;;;;;;5031067;28;20071;-58
2022/02/01 03:06:49;;;;;;;3.20;2.05;;;16.70;55.40;;;;;;5012127;28;20040;-53
2022/02/01 03:09:16;;;;;;;4.60;2.28;;;16.70;55.40;;;;;;5027761;28;20033;-58
2022/02/01 03:11:42;;;;;;;3.88;2.17;;;16.70;55.30;;;;;;5012155;28;20025;-57
2022/02/01 03:17:00;;;;;;;5.70;2.25;;;16.80;55.20;;;;;;5010964;28;20483;-53
2022/02/01 03:22:10;;;;;;;4.00;2.25;;;16.80;55.10;;;;;;5018861;28;20121;-63
2022/02/01 03:24:35;;;;;;;4.07;1.90;;;16.80;55.00;;;;;;5014306;28;20124;-55
2022/02/01 03:27:01;;;;;;;2.97;1.83;;;16.80;55.00;;;;;;5021015;28;20041;-57
2022/02/01 03:29:27;;;;;;;4.05;2.03;;;16.80;54.90;;;;;;5017242;28;20033;-53
2022/02/01 03:31:52;;;;;;;5.63;2.40;;;16.80;54.90;;;;;;5008132;28;20032;-60
2022/02/01 03:34:18;;;;;;;4.72;1.98;;;16.80;54.90;;;;;;5026311;28;20450;-55
2022/02/01 03:36:44;;;;;;;5.50;2.15;;;16.80;54.90;;;;;;5008547;28;20026;-60
2022/02/01 03:39:09;;;;;;;5.07;1.95;;;16.80;54.90;;;;;;5018374;28;20036;-61
2022/02/01 03:41:35;;;;;;;3.38;2.22;;;16.80;54.90;;;;;;5003902;28;20030;-54
2022/02/01 03:44:03;;;;;;;6.65;2.22;;;16.80;54.80;;;;;;5027393;28;20030;-60
2022/02/01 03:46:29;;;;;;;5.30;2.28;;;16.70;54.70;;;;;;5014609;28;20030;-59
2022/02/01 03:48:54;;;;;;;4.22;1.95;;;16.80;54.80;;;;;;5013202;28;21620;-55
2022/02/01 03:51:20;;;;;;;5.35;2.47;;;16.70;54.80;;;;;;5015761;28;20037;-55
2022/02/01 03:53:45;;;;;;;5.03;2.10;;;16.70;54.80;;;;;;5021574;28;20033;-56
2022/02/01 03:56:11;;;;;;;4.05;2.05;;;16.80;54.70;;;;;;5012990;28;20049;-55
2022/02/01 03:58:36;;;;;;;3.90;2.08;;;16.70;54.70;;;;;;5010996;28;20611;-60
2022/02/01 04:01:02;;;;;;;4.65;2.17;;;16.70;54.70;;;;;;5017481;28;20041;-52
2022/02/01 04:03:27;;;;;;;3.30;1.95;;;16.70;54.70;;;;;;5018304;28;20037;-58
2022/02/01 04:05:53;;;;;;;4.03;1.88;;;16.70;54.60;;;;;;5011915;28;20061;-58
2022/02/01 04:08:19;;;;;;;2.60;1.98;;;16.80;54.70;;;;;;5017847;28;20499;-58
2022/02/01 04:10:47;;;;;;;5.13;2.00;;;16.70;54.60;;;;;;5018575;28;20029;-61
2022/02/01 04:13:13;;;;;;;3.72;2.10;;;16.70;54.50;;;;;;5016548;28;20116;-64
2022/02/01 04:15:38;;;;;;;3.05;2.10;;;16.70;54.50;;;;;;5021128;28;20022;-60
2022/02/01 04:18:06;;;;;;;3.50;2.20;;;16.70;54.50;;;;;;5025131;28;20119;-56
2022/02/01 04:20:32;;;;;;;5.20;2.10;;;16.70;54.50;;;;;;5017562;28;20163;-61
2022/02/01 04:22:57;;;;;;;2.38;1.80;;;16.70;54.50;;;;;;5015681;28;20810;-56
2022/02/01 04:25:23;;;;;;;4.03;1.98;;;16.70;54.50;;;;;;5024886;28;20060;-62
2022/02/01 04:27:48;;;;;;;4.22;2.08;;;16.70;54.60;;;;;;5013004;28;20514;-56
2022/02/01 04:30:15;;;;;;;3.75;2.22;;;16.70;54.50;;;;;;5013975;28;20049;-53
2022/02/01 04:32:49;;;;;;;3.80;2.00;;;16.70;54.50;;;;;;5018924;28;20021;-55
2022/02/01 04:35:19;;;;;;;3.65;1.98;;;16.70;54.50;;;;;;5012274;28;20034;-55
2022/02/01 04:37:45;;;;;;;3.40;1.90;;;16.70;54.50;;;;;;5013390;28;20113;-55
2022/02/01 04:40:12;;;;;;;5.60;2.38;;;16.60;54.60;;;;;;5015944;28;20812;-59
2022/02/01 04:42:39;;;;;;;4.05;2.20;;;16.60;54.70;;;;;;5012652;28;20049;-52
2022/02/01 04:45:06;;;;;;;3.10;1.80;;;16.60;54.80;;;;;;5008211;28;20130;-63
2022/02/01 04:47:33;;;;;;;3.85;1.85;;;16.60;54.80;;;;;;5017901;28;20037;-57
2022/02/01 04:50:00;;;;;;;3.00;1.75;;;16.60;54.90;;;;;;5016570;28;20025;-56
2022/02/01 04:52:26;;;;;;;3.05;1.27;;;16.60;55.00;;;;;;5017827;28;20038;-55
2022/02/01 04:54:51;;;;;;;2.20;1.70;;;16.60;55.00;;;;;;5006382;28;20022;-61
2022/02/01 04:57:17;;;;;;;3.13;1.92;;;16.60;55.00;;;;;;5019364;28;20034;-61
2022/02/01 04:59:42;;;;;;;3.75;1.58;;;16.60;55.10;;;;;;5019319;28;20129;-55
2022/02/01 05:02:08;;;;;;;4.07;1.83;;;16.60;55.00;;;;;;5023950;28;20113;-55
2022/02/01 05:04:33;;;;;;;3.65;1.85;;;16.60;55.10;;;;;;5021723;28;20470;-56
2022/02/01 05:06:59;;;;;;;2.38;1.48;;;16.60;55.10;;;;;;5018982;28;20079;-56
2022/02/01 05:09:26;;;;;;;3.28;1.83;;;16.60;55.20;;;;;;5015254;28;20049;-53
2022/02/01 05:11:53;;;;;;;2.88;1.67;;;16.60;55.20;;;;;;5013413;28;20026;-55
2022/02/01 05:14:24;;;;;;;2.97;1.73;;;16.60;55.20;;;;;;5010623;28;20077;-59
2022/02/01 05:21:55;;;;;;;3.72;2.05;;;16.60;55.20;;;;;;5021024;28;20026;-53
2022/02/01 05:24:21;;;;;;;3.13;1.67;;;16.60;55.20;;;;;;5018739;28;20151;-58
2022/02/01 05:26:47;;;;;;;4.05;1.65;;;16.60;55.20;;;;;;5024701;28;20041;-56
2022/02/01 05:29:12;;;;;;;3.47;1.67;;;16.70;55.20;;;;;;5011807;28;20381;-60
2022/02/01 05:31:38;;;;;;;2.72;1.55;;;16.60;55.20;;;;;;5020268;28;20415;-54
2022/02/01 05:34:04;;;;;;;2.90;1.70;;;16.60;55.20;;;;;;5017725;28;20818;-63
2022/02/01 05:36:29;;;;;;;3.05;1.48;;;16.60;55.20;;;;;;5018637;28;20036;-55
2022/02/01 05:38:56;;;;;;;3.92;1.80;;;16.60;55.20;;;;;;5009528;28;20087;-58
2022/02/01 05:41:24;;;;;;;1.98;1.30;;;16.70;55.20;;;;;;5011049;28;20030;-53
2022/02/01 05:43:50;;;;;;;2.83;1.70;;;16.60;55.10;;;;;;5021645;28;20029;-61
2022/02/01 05:46:16;;;;;;;1.75;1.25;;;16.60;55.10;;;;;;5012260;28;20037;-58
2022/02/01 05:48:41;;;;;;;3.58;1.80;;;16.60;55.20;;;;;;5006042;28;20030;-60
2022/02/01 05:51:07;;;;;;;2.70;1.67;;;16.60;55.10;;;;;;5012748;28;20034;-53
2022/02/01 05:53:32;;;;;;;2.05;1.45;;;16.60;55.10;;;;;;5021236;28;20494;-59
2022/02/01 05:55:58;;;;;;;4.07;1.77;;;16.60;55.00;;;;;;5016100;28;20033;-58
2022/02/01 05:58:23;;;;;;;4.10;2.20;;;16.70;55.00;;;;;;5017011;28;20030;-55
2022/02/01 06:00:49;;;;;;;2.55;1.38;;;16.60;55.00;;;;;;5010182;28;20030;-63
2022/02/01 06:03:14;;;;;;;3.47;1.48;;;16.60;54.90;;;;;;5014825;28;20029;-60
2022/02/01 06:05:40;;;;;;;4.07;1.88;;;16.60;54.90;;;;;;5015684;28;20034;-57
2022/02/01 06:08:06;;;;;;;5.53;1.50;;;16.60;54.80;;;;;;5016874;28;20029;-52
2022/02/01 06:10:31;;;;;;;2.45;1.30;;;16.60;54.80;;;;;;5014217;28;20364;-59
2022/02/01 06:12:57;;;;;;;3.88;1.60;;;16.70;54.90;;;;;;5020971;28;20137;-60
2022/02/01 06:15:23;;;;;;;2.45;1.40;;;16.60;54.90;;;;;;5007750;28;20048;-57
2022/02/01 06:17:49;;;;;;;2.63;1.63;;;16.60;54.90;;;;;;5021714;28;20410;-62
2022/02/01 06:20:14;;;;;;;4.03;1.58;;;16.60;54.90;;;;;;5014415;28;20029;-53
2022/02/01 06:22:40;;;;;;;2.65;1.40;;;16.60;55.00;;;;;;5011310;28;20118;-56
2022/02/01 06:25:06;;;;;;;4.63;2.08;;;16.70;55.30;;;;;;5013315;28;20072;-53
2022/02/01 06:27:32;;;;;;;4.60;1.77;;;16.60;55.30;;;;;;5021953;28;20459;-61
2022/02/01 06:29:58;;;;;;;4.57;1.60;;;16.60;55.40;;;;;;5015141;28;20084;-53
2022/02/01 06:32:31;;;;;;;3.20;1.70;;;16.70;55.30;;;;;;5021010;28;20037;-63
2022/02/01 06:34:57;;;;;;;4.82;1.48;;;16.60;55.30;;;;;;5013923;28;20883;-54
2022/02/01 06:37:22;;;;;;;2.58;1.52;;;16.60;55.40;;;;;;5019061;28;20033;-52
2022/02/01 06:39:48;;;;;;;4.28;1.60;;;16.60;55.40;;;;;;5017820;28;20037;-59
2022/02/01 06:42:13;;;;;;;5.25;2.05;;;16.60;55.40;;;;;;5018193;28;20053;-59
2022/02/01 06:44:39;;;;;;;9.57;1.67;;;16.60;55.40;;;;;;5018984;28;20699;-55
2022/02/01 06:47:04;;;;;;;3.33;1.75;;;16.60;55.30;;;;;;5020487;28;20088;-54
2022/02/01 06:49:30;;;;;;;4.55;2.03;;;16.60;55.20;;;;;;5011092;28;20091;-58
2022/02/01 06:51:56;;;;;;;3.30;1.67;;;16.70;55.20;;;;;;5018203;28;20048;-61
2022/02/01 06:54:21;;;;;;;3.28;1.70;;;16.60;55.00;;;;;;5014169;28;20025;-51
2022/02/01 06:56:47;;;;;;;6.47;1.80;;;16.60;55.10;;;;;;5020808;28;20034;-52
2022/02/01 06:59:12;;;;;;;5.85;2.00;;;16.70;55.10;;;;;;5014118;28;20451;-61
2022/02/01 07:01:38;;;;;;;6.80;2.10;;;16.70;54.90;;;;;;5017203;28;20029;-51
2022/02/01 07:04:03;;;;;;;8.77;2.25;;;16.70;55.00;;;;;;5015920;28;20091;-56
2022/02/01 07:06:31;;;;;;;9.18;2.55;;;16.70;54.80;;;;;;5013863;28;20057;-55
2022/02/01 07:08:58;;;;;;;8.00;2.88;;;16.70;54.70;;;;;;5011681;28;20045;-60
2022/02/01 07:11:24;;;;;;;5.78;2.45;;;16.70;54.60;;;;;;5013790;28;20026;-56
2022/02/01 07:13:50;;;;;;;7.78;2.40;;;16.60;54.50;;;;;;5011026;28;20553;-54
2022/02/01 07:16:16;;;;;;;3.42;2.30;;;16.60;55.00;;;;;;5015800;28;20078;-58
2022/02/01 07:18:41;;;;;;;5.50;2.22;;;16.60;54.30;;;;;;5015367;28;20384;-59
2022/02/01 07:21:07;;;;;;;5.32;2.65;;;16.60;54.30;;;;;;5007024;28;20084;-58
2022/02/01 07:23:33;;;;;;;5.38;2.60;;;16.60;54.30;;;;;;5012078;28;20475;-59
2022/02/01 07:25:59;;;;;;;6.63;2.00;;;16.60;54.20;;;;;;5007048;28;20068;-61
2022/02/01 07:28:26;;;;;;;5.97;2.65;;;16.60;54.10;;;;;;5014730;28;20452;-52
2022/02/01 07:30:52;;;;;;;4.93;2.30;;;16.60;54.00;;;;;;5016519;28;20029;-57
2022/02/01 07:33:18;;;;;;;6.10;2.60;;;16.60;53.90;;;;;;5015370;28;20509;-62
2022/02/01 07:35:45;;;;;;;5.68;2.38;;;16.60;53.90;;;;;;5013580;28;20480;-57
2022/02/01 07:38:13;;;;;;;5.65;2.13;;;16.60;54.00;;;;;;5018642;28;20531;-62
2022/02/01 07:40:39;;;;;;;7.10;2.13;;;16.50;54.00;;;;;;5015214;28;20432;-55
2022/02/01 07:43:05;;;;;;;4.20;1.98;;;16.50;53.90;;;;;;5009285;28;20044;-52
2022/02/01 07:45:31;;;;;;;6.68;2.08;;;16.60;53.80;;;;;;5020971;28;20030;-54
2022/02/01 07:48:00;;;;;;;9.23;1.92;;;16.60;53.90;;;;;;5019601;28;20498;-61
2022/02/01 07:50:26;;;;;;;8.30;2.08;;;16.50;53.90;;;;;;5016632;28;20065;-54
2022/02/01 07:52:52;;;;;;;5.32;1.85;;;16.50;53.90;;;;;;5024103;28;20111;-59
2022/02/01 07:55:17;;;;;;;8.85;3.20;;;16.50;54.00;;;;;;5013790;28;20029;-55
2022/02/01 07:57:43;;;;;;;7.38;2.22;;;16.50;54.00;;;;;;5022911;28;20429;-58
2022/02/01 08:00:09;;;;;;;8.75;1.92;;;16.50;54.10;;;;;;5019725;28;20116;-52
2022/02/01 08:02:35;;;;;;;6.57;1.42;;;16.50;54.10;;;;;;5021577;28;20384;-57
2022/02/01 08:05:01;;;;;;;5.20;2.97;;;16.50;54.10;;;;;;5008088;28;20057;-52
2022/02/01 08:07:26;;;;;;;7.03;3.83;;;16.60;54.30;;;;;;5019379;28;20120;-58
2022/02/01 08:09:56;;;;;;;10.07;3.50;;;16.60;56.60;;;;;;5022138;28;20120;-61
2022/02/01 08:12:49;;;;;;;11.77;4.10;;;16.60;56.30;;;;;;5007688;28;20030;-61
2022/02/01 08:20:28;;;;;;;7.72;3.28;;;16.60;56.60;;;;;;5018586;28;20044;-58
2022/02/01 08:25:24;;;;;;;15.80;5.53;;;16.60;56.60;;;;;;5019522;28;20037;-61
2022/02/01 08:27:49;;;;;;;12.98;5.10;;;16.60;56.60;;;;;;5021809;28;20033;-54
2022/02/01 08:30:15;;;;;;;12.65;4.97;;;16.60;56.60;;;;;;5024197;28;20026;-60
2022/02/01 08:32:40;;;;;;;9.80;4.63;;;16.60;56.70;;;;;;5020650;28;20050;-60
2022/02/01 08:35:06;;;;;;;15.10;4.25;;;16.60;56.90;;;;;;5020090;28;20030;-54
2022/02/01 08:37:32;;;;;;;13.15;4.25;;;16.60;57.00;;;;;;5026259;28;20026;-55
2022/02/01 08:39:58;;;;;;;7.97;3.50;;;16.60;57.60;;;;;;5016338;28;20048;-57
2022/02/01 08:42:23;;;;;;;8.70;3.83;;;16.60;57.00;;;;;;5016166;28;20021;-55
2022/02/01 08:44:49;;;;;;;10.88;3.80;;;16.60;57.10;;;;;;5017108;28;20029;-58
2022/02/01 08:47:14;;;;;;;5.65;3.50;;;16.60;57.10;;;;;;5012349;28;20109;-55
2022/02/01 08:49:41;;;;;;;11.88;3.88;;;16.60;57.00;;;;;;5010248;28;20042;-55
2022/02/01 08:52:10;;;;;;;13.15;3.22;;;16.60;57.40;;;;;;5017914;28;20068;-54
2022/02/01 08:54:37;;;;;;;6.60;2.78;;;16.60;57.60;;;;;;5011719;28;20036;-60
2022/02/01 08:57:21;;;;;;;4.95;2.42;;;16.60;57.80;;;;;;5020709;28;20533;-52
2022/02/01 08:59:50;;;;;;;13.45;4.38;;;16.60;57.90;;;;;;5012057;28;20455;-54
2022/02/01 09:02:17;;;;;;;10.98;3.45;;;16.60;57.90;;;;;;5014296;28;20503;-59
2022/02/01 09:04:42;;;;;;;7.20;2.78;;;16.60;57.90;;;;;;5011405;28;20084;-51
2022/02/01 09:07:08;;;;;;;8.57;2.95;;;16.60;57.90;;;;;;5018455;28;20045;-54
2022/02/01 09:09:35;;;;;;;8.00;3.00;;;16.60;57.90;;;;;;5020752;28;20033;-62
2022/02/01 09:12:01;;;;;;;7.28;3.50;;;16.60;57.90;;;;;;5015968;28;20064;-54
2022/02/01 09:14:28;;;;;;;11.18;2.75;;;16.60;58.00;;;;;;5011393;28;20435;-60
2022/02/01 09:16:53;;;;;;;5.32;2.50;;;16.60;58.20;;;;;;5020331;28;20487;-53
2022/02/01 09:19:18;;;;;;;8.02;2.95;;;16.60;58.30;;;;;;5016517;28;20037;-59
2022/02/01 09:21:44;;;;;;;4.70;2.60;;;16.60;58.90;;;;;;5021949;28;20029;-62
2022/02/01 09:24:10;;;;;;;6.38;2.50;;;16.60;58.40;;;;;;5028929;23;20061;-49
2022/02/01 09:26:36;;;;;;;5.40;2.55;;;16.70;58.40;;;;;;5029024;28;20406;-52
2022/02/01 09:29:01;;;;;;;3.60;2.25;;;16.60;58.30;;;;;;5012117;28;20115;-50
2022/02/01 09:31:26;;;;;;;6.57;2.38;;;16.60;58.50;;;;;;5025176;28;20037;-58
2022/02/01 09:33:52;;;;;;;6.60;2.75;;;16.70;58.60;;;;;;5013712;28;20021;-48
2022/02/01 09:36:18;;;;;;;7.32;2.88;;;16.60;58.60;;;;;;5017064;28;20446;-52
2022/02/01 09:38:43;;;;;;;9.93;2.40;;;16.70;58.60;;;;;;5016645;28;20067;-54
2022/02/01 09:41:09;;;;;;;6.20;2.22;;;16.70;58.70;;;;;;5004649;28;20113;-58
2022/02/01 09:43:34;;;;;;;8.25;2.10;;;16.70;58.80;;;;;;5012697;28;20029;-51
2022/02/01 09:46:00;;;;;;;4.75;2.08;;;16.70;58.80;;;;;;5012782;28;20056;-52
2022/02/01 09:48:26;;;;;;;6.97;2.47;;;16.70;58.90;;;;;;5012245;28;20045;-57
2022/02/01 09:50:52;;;;;;;6.32;2.17;;;16.70;59.00;;;;;;5013153;28;20037;-52
2022/02/01 09:53:18;;;;;;;5.05;2.30;;;16.70;58.80;;;;;;5006745;28;20036;-59
2022/02/01 09:55:43;;;;;;;6.80;2.17;;;16.70;58.90;;;;;;5012685;28;20497;-54
2022/02/01 09:58:12;;;;;;;5.97;3.20;;;16.70;59.00;;;;;;5017325;28;20025;-51
2022/02/01 10:00:46;;;;;;;6.60;1.90;;;16.70;59.00;;;;;;5001728;28;20033;-56
2022/02/01 10:03:19;;;;;;;5.75;2.25;;;16.70;59.00;;;;;;5016713;28;20644;-60
2022/02/01 10:05:45;;;;;;;3.78;1.85;;;16.80;59.10;;;;;;5017376;28;20018;-60
2022/02/01 10:08:12;;;;;;;5.53;1.95;;;16.80;59.00;;;;;;5035056;28;20038;-60
2022/02/01 10:10:37;;;;;;;4.88;1.98;;;16.80;59.20;;;;;;5032039;28;20069;-51
2022/02/01 10:13:13;;;;;;;5.32;1.92;;;16.70;59.10;;;;;;5007435;28;20037;-57
2022/02/01 10:15:39;;;;;;;;;;;16.70;59.10;;;;;;5012087;28;20065;-60
2022/02/01 10:18:04;;;;;;;4.65;1.95;;;16.80;59.10;;;;;;5006741;28;19909;-54
2022/02/01 10:20:34;;;;;;;4.82;1.65;;;16.80;59.20;;;;;;5010953;28;20028;-58
2022/02/01 10:22:59;;;;;;;6.53;2.33;;;16.70;59.20;;;;;;5007133;28;20442;-54
2022/02/01 10:25:29;;;;;;;2.83;1.50;;;16.80;59.20;;;;;;5013766;28;20033;-55
2022/02/01 10:27:57;;;;;;;5.47;2.25;;;16.80;59.20;;;;;;5006598;28;20034;-50
2022/02/01 10:30:37;;;;;;;6.78;1.65;;;16.80;59.20;;;;;;5012097;28;20030;-57
2022/02/01 10:33:31;;;;;;;4.68;1.60;;;16.80;59.20;;;;;;5004360;28;20137;-54
2022/02/01 10:35:56;;;;;;;3.30;1.63;;;16.80;59.30;;;;;;5010060;28;20071;-56
2022/02/01 10:38:23;;;;;;;4.85;1.88;;;16.80;59.40;;;;;;5008044;28;20026;-60
2022/02/01 10:40:50;;;;;;;4.10;2.17;;;16.80;59.50;;;;;;5018075;28;20021;-55
2022/02/01 10:43:17;;;;;;;4.45;1.70;;;16.80;59.40;;;;;;5005695;28;20033;-53
2022/02/01 10:45:47;;;;;;;5.10;1.88;;;16.80;59.40;;;;;;4997697;28;20660;-56
2022/02/01 10:48:17;;;;;;;5.57;2.00;;;16.80;59.50;;;;;;5032076;28;20036;-57
2022/02/01 10:50:43;;;;;;;6.85;1.40;;;16.80;59.50;;;;;;5011796;28;20112;-51
2022/02/01 10:53:18;;;;;;;5.30;1.80;;;16.90;59.50;;;;;;5015775;28;20057;-61
2022/02/01 10:55:47;;;;;;;4.15;1.85;;;16.90;59.40;;;;;;5015816;28;20029;-53
2022/02/01 10:58:15;;;;;;;7.03;2.05;;;16.90;59.30;;;;;;5017349;28;20441;-55
2022/02/01 11:00:41;;;;;;;3.50;1.75;;;16.80;59.20;;;;;;5012075;28;20033;-55
2022/02/01 11:03:07;;;;;;;5.72;2.00;;;16.90;59.20;;;;;;5004643;28;20087;-55
2022/02/01 11:05:32;;;;;;;5.68;2.20;;;16.80;59.00;;;;;;5009479;28;20029;-55
2022/02/01 11:07:58;;;;;;;4.80;1.88;;;16.80;58.90;;;;;;5014496;28;20158;-58
2022/02/01 11:10:23;;;;;;;4.63;1.75;;;16.90;58.90;;;;;;5010973;28;20565;-56
2022/02/01 11:12:49;;;;;;;5.28;2.40;;;16.90;58.70;;;;;;5015314;28;20064;-52
2022/02/01 11:15:18;;;;;;;5.57;2.10;;;16.80;58.60;;;;;;5016330;28;20053;-52
2022/02/01 11:17:50;;;;;;;4.80;1.90;;;16.90;58.60;;;;;;5005916;28;20037;-59
2022/02/01 11:20:25;;;;;;;4.70;1.73;;;16.80;58.40;;;;;;5010046;28;20155;-59
2022/02/01 11:23:00;;;;;;;5.68;1.92;;;16.80;58.30;;;;;;5011214;28;20036;-59
2022/02/01 11:25:29;;;;;;;7.25;2.10;;;16.80;58.20;;;;;;5000845;28;20084;-62
2022/02/01 11:30:37;;;;;;;5.32;2.03;;;16.80;58.00;;;;;;5006449;28;20030;-56
2022/02/01 11:33:03;;;;;;;6.45;2.22;;;16.80;57.90;;;;;;5004771;28;20036;-57
2022/02/01 11:35:28;;;;;;;7.13;2.20;;;16.80;57.80;;;;;;5011751;28;20520;-56
2022/02/01 11:37:59;;;;;;;6.65;1.52;;;16.90;57.70;;;;;;5010418;28;20198;-58
2022/02/01 11:40:25;;;;;;;5.50;1.90;;;16.80;57.50;;;;;;5006185;28;20049;-58
2022/02/01 11:42:59;;;;;;;4.45;1.60;;;16.90;57.50;;;;;;5011475;28;20021;-57
2022/02/01 11:45:29;;;;;;;3.80;1.65;;;16.90;57.30;;;;;;4981854;28;20033;-57
2022/02/01 11:47:55;;;;;;;5.75;1.95;;;16.90;57.90;;;;;;5005727;28;20034;-57
2022/02/01 11:50:23;;;;;;;5.30;1.45;;;16.90;57.10;;;;;;5007145;28;20038;-61
2022/02/01 11:52:50;;;;;;;3.53;1.23;;;16.80;57.00;;;;;;5007423;28;20038;-58
2022/02/01 11:55:16;;;;;;;4.43;1.70;;;16.90;57.00;;;;;;5004262;28;20115;-52
2022/02/01 11:57:43;;;;;;;4.07;1.50;;;16.90;56.90;;;;;;5010858;28;20052;-55
2022/02/01 12:00:19;;;;;;;3.53;1.58;;;16.90;56.80;;;;;;4991198;28;20033;-53
2022/02/01 12:02:49;;;;;;;4.28;1.77;;;16.90;56.70;;;;;;5016716;28;20116;-55
2022/02/01 12:05:27;;;;;;;3.78;1.45;;;16.90;56.70;;;;;;5006535;28;20037;-54
2022/02/01 12:08:13;;;;;;;6.82;1.95;;;16.90;56.60;;;;;;5015733;28;20025;-54
2022/02/01 12:10:40;;;;;;;3.55;1.52;;;16.90;56.60;;;;;;5005807;28;20030;-57
2022/02/01 12:13:06;;;;;;;3.83;1.40;;;16.90;56.50;;;;;;5018690;28;20507;-58
2022/02/01 12:15:36;;;;;;;3.45;1.45;;;16.90;56.40;;;;;;5007611;28;20037;-54
2022/02/01 12:18:22;;;;;;;4.43;1.90;;;16.90;56.40;;;;;;5011833;28;20041;-61
2022/02/01 12:21:03;;;;;;;4.75;1.52;;;16.90;56.30;;;;;;5016071;28;20038;-56
2022/02/01 12:23:29;;;;;;;3.83;1.38;;;16.90;56.30;;;;;;5019394;28;20133;-58
2022/02/01 12:25:54;;;;;;;2.90;1.30;;;16.90;56.20;;;;;;5010395;28;20450;-53
2022/02/01 12:28:30;;;;;;;5.13;1.77;;;16.90;56.10;;;;;;5001613;28;20723;-52
2022/02/01 12:31:11;;;;;;;3.58;1.42;;;16.90;56.10;;;;;;5005643;28;20037;-57
2022/02/01 12:33:44;;;;;;;2.72;1.40;;;16.90;56.10;;;;;;5012894;28;20038;-52
2022/02/01 12:36:10;;;;;;;5.07;1.67;;;16.90;56.00;;;;;;5018634;28;20037;-53
2022/02/01 12:38:36;;;;;;;3.20;1.17;;;16.90;56.00;;;;;;5017804;28;20025;-59
2022/02/01 12:41:12;;;;;;;4.10;1.58;;;16.90;56.10;;;;;;5010746;28;20224;-51
2022/02/01 12:45:42;;;;;;;4.55;1.45;;;16.90;56.00;;;;;;5009784;28;20471;-59
2022/02/01 12:46:54;;;;;;;2.85;1.60;;;16.90;56.00;;;;;;5013215;28;20074;-55
2022/02/01 12:49:40;;;;;;;5.45;1.50;;;16.90;56.00;;;;;;5013724;28;20033;-61
2022/02/01 12:52:16;;;;;;;4.15;1.10;;;16.90;55.90;;;;;;4998894;28;20392;-62
2022/02/01 12:54:42;;;;;;;5.10;1.40;;;16.90;55.90;;;;;;5012974;28;20194;-60
2022/02/01 12:57:16;;;;;;;3.10;1.10;;;16.90;55.80;;;;;;5020849;28;20566;-51
2022/02/01 12:59:48;;;;;;;3.40;1.25;;;16.90;55.80;;;;;;5009457;28;20061;-54
2022/02/01 13:02:16;;;;;;;3.15;1.20;;;16.80;55.80;;;;;;5012466;28;20538;-52
2022/02/01 13:04:41;;;;;;;2.17;0.90;;;16.80;55.70;;;;;;5016212;28;20029;-54
2022/02/01 13:07:24;;;;;;;3.00;1.25;;;16.90;55.70;;;;;;5017775;28;20034;-56
2022/02/01 13:15:28;;;;;;;3.00;1.13;;;16.70;56.20;;;;;;5014208;28;20060;-54
2022/02/01 13:18:18;;;;;;;2.35;1.05;;;16.70;56.30;;;;;;5013678;28;20033;-56
2022/02/01 13:20:45;;;;;;;2.88;1.25;;;16.70;56.40;;;;;;5013695;28;20053;-54
2022/02/01 13:23:11;;;;;;;2.80;0.93;;;16.70;56.40;;;;;;5015180;28;20030;-51
2022/02/01 13:25:42;;;;;;;3.13;1.45;;;16.70;56.30;;;;;;5012842;28;20056;-57
2022/02/01 13:28:10;;;;;;;2.78;1.63;;;16.70;56.30;;;;;;5017875;28;20041;-60
2022/02/01 13:30:36;;;;;;;1.65;0.93;;;16.70;56.20;;;;;;5016147;28;20118;-58
2022/02/01 13:33:07;;;;;;;3.33;1.00;;;16.70;56.20;;;;;;5018692;28;20034;-58
2022/02/01 13:35:33;;;;;;;4.15;1.20;;;16.70;56.20;;;;;;5011776;28;20509;-55
2022/02/01 13:38:07;;;;;;;2.88;0.93;;;16.70;56.10;;;;;;5014786;28;20053;-53
2022/02/01 13:40:34;;;;;;;2.58;0.82;;;16.70;56.00;;;;;;5019857;28;20071;-53
2022/02/01 13:42:59;;;;;;;3.05;1.08;;;16.70;56.00;;;;;;5005807;28;20026;-50
2022/02/01 13:45:35;;;;;;;2.10;1.20;;;16.70;56.00;;;;;;5009928;28;20041;-52
2022/02/01 13:48:00;;;;;;;3.92;1.23;;;16.70;56.10;;;;;;5008141;28;20032;-54
2022/02/01 13:50:26;;;;;;;3.20;1.42;;;16.60;56.20;;;;;;5016017;28;20037;-51
2022/02/01 13:53:02;;;;;;;2.97;0.95;;;16.60;56.30;;;;;;5017049;28;20088;-51
2022/02/01 13:55:29;;;;;;;3.08;1.25;;;16.60;56.30;;;;;;5006245;28;20029;-60
2022/02/01 13:58:06;;;;;;;1.70;0.95;;;16.60;56.40;;;;;;5014716;28;20057;-56
2022/02/01 14:00:33;;;;;;;2.90;1.00;;;16.60;56.30;;;;;;5015819;28;20442;-57
2022/02/01 14:03:40;;;;;;;1.70;1.20;;;16.60;56.60;;;;;;5017482;28;20044;-58
2022/02/01 14:06:13;;;;;;;2.72;1.73;;;16.60;56.80;;;;;;5010219;28;20499;-59
2022/02/01 14:09:26;;;;;;;2.63;1.10;;;16.60;56.80;;;;;;5015887;28;20730;-61
2022/02/01 14:25:38;;;;;;;1.90;1.17;;;16.60;56.70;;;;;;5008528;28;20061;-54
2022/02/01 14:28:22;;;;;;;3.50;1.38;;;16.60;56.70;;;;;;5014197;28;20029;-55
2022/02/01 14:36:05;;;;;;;2.15;0.82;;;16.60;56.70;;;;;;5009676;28;20463;-57
2022/02/01 14:44:03;;;;;;;1.90;0.73;;;16.60;56.60;;;;;;5011702;28;20752;-56